sensor_id;sensor_type;location;lat;lon;timestamp;temperature;humidity
9305;DHT22;4690;52.422;13.486;2022-07-24T00:05:51;16.00;99.90
9305;DHT22;4690;52.422;13.486;2022-07-24T00:08:16;16.00;99.90
9305;DHT22;4690;52.422;13.486;2022-07-24T00:10:42;16.00;99.90
9305;DHT22;4690;52.422;13.486;2022-07-24T00:13:08;15.90;99.90
9305;DHT22;4690;52.422;13.486;2022-07-24T00:15:33;15.80;99.90
9305;DHT22;4690;52.422;13.486;2022-07-24T00:17:59;15.80;99.90
9305;DHT22;4690;52.422;13.486;2022-07-24T00:20:25;15.70;99.90
9305;DHT22;4690;52.422;13.486;2022-07-24T00:22:51;15.60;99.90
9305;DHT22;4690;52.422;13.486;2022-07-24T00:25:17;15.60;99.90
9305;DHT22;4690;52.422;13.486;2022-07-24T00:27:42;15.50;99.90
9305;DHT22;4690;52.422;13.486;2022-07-24T00:30:08;15.50;99.90
9305;DHT22;4690;52.422;13.486;2022-07-24T00:32:34;15.40;99.90
9305;DHT22;4690;52.422;13.486;2022-07-24T00:35:00;15.40;99.90
9305;DHT22;4690;52.422;13.486;2022-07-24T00:37:26;15.40;99.90
9305;DHT22;4690;52.422;13.486;2022-07-24T00:39:52;15.30;99.90
9305;DHT22;4690;52.422;13.486;2022-07-24T00:42:18;15.30;99.90
9305;DHT22;4690;52.422;13.486;2022-07-24T00:44:44;15.30;99.90
9305;DHT22;4690;52.422;13.486;2022-07-24T00:47:10;15.20;99.90
9305;DHT22;4690;52.422;13.486;2022-07-24T00:49:35;15.20;99.90
9305;DHT22;4690;52.422;13.486;2022-07-24T00:52:01;15.20;99.90
9305;DHT22;4690;52.422;13.486;2022-07-24T00:54:27;15.20;99.90
9305;DHT22;4690;52.422;13.486;2022-07-24T00:56:53;15.20;99.90
9305;DHT22;4690;52.422;13.486;2022-07-24T00:59:20;15.20;99.90
9305;DHT22;4690;52.422;13.486;2022-07-24T01:01:47;15.30;99.90
9305;DHT22;4690;52.422;13.486;2022-07-24T01:04:14;15.30;99.90
9305;DHT22;4690;52.422;13.486;2022-07-24T01:06:42;15.20;99.90
9305;DHT22;4690;52.422;13.486;2022-07-24T01:09:08;15.20;99.90
9305;DHT22;4690;52.422;13.486;2022-07-24T01:11:36;15.20;99.90
9305;DHT22;4690;52.422;13.486;2022-07-24T01:14:04;15.20;99.90
9305;DHT22;4690;52.422;13.486;2022-07-24T01:16:32;15.20;99.90
9305;DHT22;4690;52.422;13.486;2022-07-24T01:18:59;15.20;99.90
9305;DHT22;4690;52.422;13.486;2022-07-24T01:21:25;15.10;99.90
9305;DHT22;4690;52.422;13.486;2022-07-24T01:23:51;15.00;99.90
9305;DHT22;4690;52.422;13.486;2022-07-24T01:26:17;15.10;99.90
9305;DHT22;4690;52.422;13.486;2022-07-24T01:28:42;15.10;99.90
9305;DHT22;4690;52.422;13.486;2022-07-24T01:31:08;15.00;99.90
9305;DHT22;4690;52.422;13.486;2022-07-24T01:33:34;15.00;99.90
9305;DHT22;4690;52.422;13.486;2022-07-24T01:36:00;15.00;99.90
9305;DHT22;4690;52.422;13.486;2022-07-24T01:38:25;14.90;99.90
9305;DHT22;4690;52.422;13.486;2022-07-24T01:40:51;14.80;99.90
9305;DHT22;4690;52.422;13.486;2022-07-24T01:43:17;14.80;99.90
9305;DHT22;4690;52.422;13.486;2022-07-24T01:45:42;14.80;99.90
9305;DHT22;4690;52.422;13.486;2022-07-24T01:48:08;14.80;99.90
9305;DHT22;4690;52.422;13.486;2022-07-24T01:50:34;14.80;99.90
9305;DHT22;4690;52.422;13.486;2022-07-24T01:53:01;14.80;99.90
9305;DHT22;4690;52.422;13.486;2022-07-24T01:55:27;14.70;99.90
9305;DHT22;4690;52.422;13.486;2022-07-24T01:57:53;14.70;99.90
9305;DHT22;4690;52.422;13.486;2022-07-24T02:00:19;14.70;99.90
9305;DHT22;4690;52.422;13.486;2022-07-24T02:02:45;14.60;99.90
9305;DHT22;4690;52.422;13.486;2022-07-24T02:05:12;14.60;99.90
9305;DHT22;4690;52.422;13.486;2022-07-24T02:07:42;14.60;99.90
9305;DHT22;4690;52.422;13.486;2022-07-24T02:10:11;14.50;99.90
9305;DHT22;4690;52.422;13.486;2022-07-24T02:12:38;14.50;99.90
9305;DHT22;4690;52.422;13.486;2022-07-24T02:15:04;14.40;99.90
9305;DHT22;4690;52.422;13.486;2022-07-24T02:17:31;14.40;99.90
9305;DHT22;4690;52.422;13.486;2022-07-24T02:19:56;14.30;99.90
9305;DHT22;4690;52.422;13.486;2022-07-24T02:22:22;14.30;99.90
9305;DHT22;4690;52.422;13.486;2022-07-24T02:24:48;14.30;99.90
9305;DHT22;4690;52.422;13.486;2022-07-24T02:27:14;14.20;99.90
9305;DHT22;4690;52.422;13.486;2022-07-24T02:29:39;14.20;99.90
9305;DHT22;4690;52.422;13.486;2022-07-24T02:32:06;14.10;99.90
9305;DHT22;4690;52.422;13.486;2022-07-24T02:34:33;14.10;99.90
9305;DHT22;4690;52.422;13.486;2022-07-24T02:36:58;14.10;99.90
9305;DHT22;4690;52.422;13.486;2022-07-24T02:39:24;14.00;99.90
9305;DHT22;4690;52.422;13.486;2022-07-24T02:41:50;14.00;99.90
9305;DHT22;4690;52.422;13.486;2022-07-24T02:44:15;13.90;99.90
9305;DHT22;4690;52.422;13.486;2022-07-24T02:46:41;13.90;99.90
9305;DHT22;4690;52.422;13.486;2022-07-24T02:49:07;13.90;99.90
9305;DHT22;4690;52.422;13.486;2022-07-24T02:51:33;13.80;99.90
9305;DHT22;4690;52.422;13.486;2022-07-24T02:53:59;13.90;99.90
9305;DHT22;4690;52.422;13.486;2022-07-24T02:56:24;13.80;99.90
9305;DHT22;4690;52.422;13.486;2022-07-24T02:58:50;13.80;99.90
9305;DHT22;4690;52.422;13.486;2022-07-24T03:01:16;13.80;99.90
9305;DHT22;4690;52.422;13.486;2022-07-24T03:03:41;13.70;99.90
9305;DHT22;4690;52.422;13.486;2022-07-24T03:06:07;13.70;99.90
9305;DHT22;4690;52.422;13.486;2022-07-24T03:08:33;13.60;99.90
9305;DHT22;4690;52.422;13.486;2022-07-24T03:10:58;13.60;99.90
9305;DHT22;4690;52.422;13.486;2022-07-24T03:13:24;13.60;99.90
9305;DHT22;4690;52.422;13.486;2022-07-24T03:15:50;13.60;99.90
9305;DHT22;4690;52.422;13.486;2022-07-24T03:18:15;13.60;99.90
9305;DHT22;4690;52.422;13.486;2022-07-24T03:20:41;13.60;99.90
9305;DHT22;4690;52.422;13.486;2022-07-24T03:23:07;13.50;99.90
9305;DHT22;4690;52.422;13.486;2022-07-24T03:25:32;13.50;99.90
9305;DHT22;4690;52.422;13.486;2022-07-24T03:27:58;13.50;99.90
9305;DHT22;4690;52.422;13.486;2022-07-24T03:30:24;13.50;99.90
9305;DHT22;4690;52.422;13.486;2022-07-24T03:32:50;13.50;99.90
9305;DHT22;4690;52.422;13.486;2022-07-24T03:35:15;13.50;99.90
9305;DHT22;4690;52.422;13.486;2022-07-24T03:37:41;13.50;99.90
9305;DHT22;4690;52.422;13.486;2022-07-24T03:40:07;13.60;99.90
9305;DHT22;4690;52.422;13.486;2022-07-24T03:42:34;13.60;99.90
9305;DHT22;4690;52.422;13.486;2022-07-24T03:44:59;13.60;99.90
9305;DHT22;4690;52.422;13.486;2022-07-24T03:47:25;13.60;99.90
9305;DHT22;4690;52.422;13.486;2022-07-24T03:49:51;13.60;99.90
9305;DHT22;4690;52.422;13.486;2022-07-24T03:52:17;13.60;99.90
9305;DHT22;4690;52.422;13.486;2022-07-24T03:54:43;13.60;99.90
9305;DHT22;4690;52.422;13.486;2022-07-24T03:57:09;13.60;99.90
9305;DHT22;4690;52.422;13.486;2022-07-24T03:59:35;13.60;99.90
9305;DHT22;4690;52.422;13.486;2022-07-24T04:02:00;13.70;99.90
9305;DHT22;4690;52.422;13.486;2022-07-24T04:04:26;13.70;99.90
9305;DHT22;4690;52.422;13.486;2022-07-24T04:06:52;13.70;99.90
9305;DHT22;4690;52.422;13.486;2022-07-24T04:09:18;13.70;99.90
9305;DHT22;4690;52.422;13.486;2022-07-24T04:11:43;13.80;99.90
9305;DHT22;4690;52.422;13.486;2022-07-24T04:14:11;13.80;99.90
9305;DHT22;4690;52.422;13.486;2022-07-24T04:16:37;13.80;99.90
9305;DHT22;4690;52.422;13.486;2022-07-24T04:19:03;13.80;99.90
9305;DHT22;4690;52.422;13.486;2022-07-24T04:21:29;13.90;99.90
9305;DHT22;4690;52.422;13.486;2022-07-24T04:23:54;14.00;99.90
9305;DHT22;4690;52.422;13.486;2022-07-24T04:26:20;14.10;99.90
9305;DHT22;4690;52.422;13.486;2022-07-24T04:28:46;14.20;99.90
9305;DHT22;4690;52.422;13.486;2022-07-24T04:31:11;14.30;99.90
9305;DHT22;4690;52.422;13.486;2022-07-24T04:33:37;14.40;99.90
9305;DHT22;4690;52.422;13.486;2022-07-24T04:36:04;14.50;99.90
9305;DHT22;4690;52.422;13.486;2022-07-24T04:38:33;14.60;99.90
9305;DHT22;4690;52.422;13.486;2022-07-24T04:40:59;14.60;99.90
9305;DHT22;4690;52.422;13.486;2022-07-24T04:43:25;14.70;99.90
9305;DHT22;4690;52.422;13.486;2022-07-24T04:45:51;14.80;99.90
9305;DHT22;4690;52.422;13.486;2022-07-24T04:48:17;14.80;99.90
9305;DHT22;4690;52.422;13.486;2022-07-24T04:50:43;14.90;99.90
9305;DHT22;4690;52.422;13.486;2022-07-24T04:53:08;14.90;99.90
9305;DHT22;4690;52.422;13.486;2022-07-24T04:55:34;15.00;99.90
9305;DHT22;4690;52.422;13.486;2022-07-24T04:58:00;15.00;99.90
9305;DHT22;4690;52.422;13.486;2022-07-24T05:00:26;15.10;99.90
9305;DHT22;4690;52.422;13.486;2022-07-24T05:02:51;15.20;99.90
9305;DHT22;4690;52.422;13.486;2022-07-24T05:05:17;15.20;99.90
9305;DHT22;4690;52.422;13.486;2022-07-24T05:07:43;15.30;99.90
9305;DHT22;4690;52.422;13.486;2022-07-24T05:10:09;15.40;99.90
9305;DHT22;4690;52.422;13.486;2022-07-24T05:12:35;15.50;99.90
9305;DHT22;4690;52.422;13.486;2022-07-24T05:15:01;15.60;99.90
9305;DHT22;4690;52.422;13.486;2022-07-24T05:17:27;15.60;99.90
9305;DHT22;4690;52.422;13.486;2022-07-24T05:19:52;15.70;99.90
9305;DHT22;4690;52.422;13.486;2022-07-24T05:22:18;15.70;99.90
9305;DHT22;4690;52.422;13.486;2022-07-24T05:24:44;15.80;99.90
9305;DHT22;4690;52.422;13.486;2022-07-24T05:27:09;15.90;99.90
9305;DHT22;4690;52.422;13.486;2022-07-24T05:29:35;15.90;99.90
9305;DHT22;4690;52.422;13.486;2022-07-24T05:32:01;16.00;99.90
9305;DHT22;4690;52.422;13.486;2022-07-24T05:34:26;16.10;99.90
9305;DHT22;4690;52.422;13.486;2022-07-24T05:36:52;16.20;99.90
9305;DHT22;4690;52.422;13.486;2022-07-24T05:39:18;16.20;99.90
9305;DHT22;4690;52.422;13.486;2022-07-24T05:41:43;16.30;99.90
9305;DHT22;4690;52.422;13.486;2022-07-24T05:44:09;16.30;99.90
9305;DHT22;4690;52.422;13.486;2022-07-24T05:46:35;16.50;99.90
9305;DHT22;4690;52.422;13.486;2022-07-24T05:49:00;16.60;99.90
9305;DHT22;4690;52.422;13.486;2022-07-24T05:51:26;16.70;99.90
9305;DHT22;4690;52.422;13.486;2022-07-24T05:53:52;16.80;99.90
9305;DHT22;4690;52.422;13.486;2022-07-24T05:56:18;17.00;99.90
9305;DHT22;4690;52.422;13.486;2022-07-24T05:58:43;17.00;99.90
9305;DHT22;4690;52.422;13.486;2022-07-24T06:01:09;17.20;99.90
9305;DHT22;4690;52.422;13.486;2022-07-24T06:03:36;17.40;99.90
9305;DHT22;4690;52.422;13.486;2022-07-24T06:06:05;17.60;99.90
9305;DHT22;4690;52.422;13.486;2022-07-24T06:08:31;17.60;99.90
9305;DHT22;4690;52.422;13.486;2022-07-24T06:10:57;17.60;99.90
9305;DHT22;4690;52.422;13.486;2022-07-24T06:13:22;17.80;99.90
9305;DHT22;4690;52.422;13.486;2022-07-24T06:15:48;17.90;99.90
9305;DHT22;4690;52.422;13.486;2022-07-24T06:18:14;17.90;99.90
9305;DHT22;4690;52.422;13.486;2022-07-24T06:20:40;18.10;99.90
9305;DHT22;4690;52.422;13.486;2022-07-24T06:23:06;18.20;99.90
9305;DHT22;4690;52.422;13.486;2022-07-24T06:25:32;18.40;99.90
9305;DHT22;4690;52.422;13.486;2022-07-24T06:27:58;18.50;99.90
9305;DHT22;4690;52.422;13.486;2022-07-24T06:30:25;18.70;99.90
9305;DHT22;4690;52.422;13.486;2022-07-24T06:32:57;18.70;99.90
9305;DHT22;4690;52.422;13.486;2022-07-24T06:35:25;18.70;99.90
9305;DHT22;4690;52.422;13.486;2022-07-24T06:37:53;18.90;99.90
9305;DHT22;4690;52.422;13.486;2022-07-24T06:40:19;19.10;99.90
9305;DHT22;4690;52.422;13.486;2022-07-24T06:42:46;19.00;99.90
9305;DHT22;4690;52.422;13.486;2022-07-24T06:45:13;19.30;99.90
9305;DHT22;4690;52.422;13.486;2022-07-24T06:47:40;19.50;99.90
9305;DHT22;4690;52.422;13.486;2022-07-24T06:50:06;19.70;99.90
9305;DHT22;4690;52.422;13.486;2022-07-24T06:52:32;20.00;99.90
9305;DHT22;4690;52.422;13.486;2022-07-24T06:54:58;20.10;99.90
9305;DHT22;4690;52.422;13.486;2022-07-24T06:57:24;20.30;99.90
9305;DHT22;4690;52.422;13.486;2022-07-24T06:59:51;20.30;99.90
9305;DHT22;4690;52.422;13.486;2022-07-24T07:02:18;20.30;99.90
9305;DHT22;4690;52.422;13.486;2022-07-24T07:04:45;20.50;99.90
9305;DHT22;4690;52.422;13.486;2022-07-24T07:07:11;20.70;99.90
9305;DHT22;4690;52.422;13.486;2022-07-24T07:09:37;20.70;99.90
9305;DHT22;4690;52.422;13.486;2022-07-24T07:12:04;20.60;99.90
9305;DHT22;4690;52.422;13.486;2022-07-24T07:14:30;20.80;99.90
9305;DHT22;4690;52.422;13.486;2022-07-24T07:16:56;21.00;99.90
9305;DHT22;4690;52.422;13.486;2022-07-24T07:19:21;20.90;99.90
9305;DHT22;4690;52.422;13.486;2022-07-24T07:21:47;20.80;99.90
9305;DHT22;4690;52.422;13.486;2022-07-24T07:24:13;20.60;99.90
9305;DHT22;4690;52.422;13.486;2022-07-24T07:26:39;20.80;99.90
9305;DHT22;4690;52.422;13.486;2022-07-24T07:29:05;21.00;99.90
9305;DHT22;4690;52.422;13.486;2022-07-24T07:31:31;21.00;99.90
9305;DHT22;4690;52.422;13.486;2022-07-24T07:33:56;20.90;99.90
9305;DHT22;4690;52.422;13.486;2022-07-24T07:36:23;20.90;99.90
9305;DHT22;4690;52.422;13.486;2022-07-24T07:38:49;20.90;99.90
9305;DHT22;4690;52.422;13.486;2022-07-24T07:41:15;21.00;99.90
9305;DHT22;4690;52.422;13.486;2022-07-24T07:43:47;21.20;99.90
9305;DHT22;4690;52.422;13.486;2022-07-24T07:46:13;21.40;99.90
9305;DHT22;4690;52.422;13.486;2022-07-24T07:48:40;21.50;99.90
9305;DHT22;4690;52.422;13.486;2022-07-24T07:51:06;21.30;99.90
9305;DHT22;4690;52.422;13.486;2022-07-24T07:53:32;21.00;99.90
9305;DHT22;4690;52.422;13.486;2022-07-24T07:55:58;21.30;99.90
9305;DHT22;4690;52.422;13.486;2022-07-24T07:58:23;21.30;99.90
9305;DHT22;4690;52.422;13.486;2022-07-24T08:00:52;21.50;99.90
9305;DHT22;4690;52.422;13.486;2022-07-24T08:03:18;21.50;99.90
9305;DHT22;4690;52.422;13.486;2022-07-24T08:05:44;21.10;99.90
9305;DHT22;4690;52.422;13.486;2022-07-24T08:08:10;21.20;99.90
9305;DHT22;4690;52.422;13.486;2022-07-24T08:10:36;21.60;99.90
9305;DHT22;4690;52.422;13.486;2022-07-24T08:13:02;21.80;99.90
9305;DHT22;4690;52.422;13.486;2022-07-24T08:15:28;21.70;99.90
9305;DHT22;4690;52.422;13.486;2022-07-24T08:17:56;22.20;99.90
9305;DHT22;4690;52.422;13.486;2022-07-24T08:20:23;22.50;99.90
9305;DHT22;4690;52.422;13.486;2022-07-24T08:22:51;22.60;99.90
9305;DHT22;4690;52.422;13.486;2022-07-24T08:25:17;22.70;99.90
9305;DHT22;4690;52.422;13.486;2022-07-24T08:27:43;22.90;99.90
9305;DHT22;4690;52.422;13.486;2022-07-24T08:30:10;22.90;99.90
9305;DHT22;4690;52.422;13.486;2022-07-24T08:32:36;22.90;99.90
9305;DHT22;4690;52.422;13.486;2022-07-24T08:35:04;23.20;99.90
9305;DHT22;4690;52.422;13.486;2022-07-24T08:37:38;23.30;99.90
9305;DHT22;4690;52.422;13.486;2022-07-24T08:40:06;23.40;99.90
9305;DHT22;4690;52.422;13.486;2022-07-24T08:42:35;23.40;99.90
9305;DHT22;4690;52.422;13.486;2022-07-24T08:45:03;23.50;99.90
9305;DHT22;4690;52.422;13.486;2022-07-24T08:47:30;23.40;99.90
9305;DHT22;4690;52.422;13.486;2022-07-24T08:50:00;23.40;99.90
9305;DHT22;4690;52.422;13.486;2022-07-24T08:52:28;23.50;99.90
9305;DHT22;4690;52.422;13.486;2022-07-24T08:54:54;23.70;99.90
9305;DHT22;4690;52.422;13.486;2022-07-24T08:57:20;23.90;99.90
9305;DHT22;4690;52.422;13.486;2022-07-24T08:59:47;24.00;99.90
9305;DHT22;4690;52.422;13.486;2022-07-24T09:02:12;24.20;99.90
9305;DHT22;4690;52.422;13.486;2022-07-24T09:04:41;24.20;99.90
9305;DHT22;4690;52.422;13.486;2022-07-24T09:07:17;24.00;99.90
9305;DHT22;4690;52.422;13.486;2022-07-24T09:10:00;24.00;99.90
9305;DHT22;4690;52.422;13.486;2022-07-24T09:12:33;24.20;99.90
9305;DHT22;4690;52.422;13.486;2022-07-24T09:15:09;24.20;99.90
9305;DHT22;4690;52.422;13.486;2022-07-24T09:17:55;24.50;99.90
9305;DHT22;4690;52.422;13.486;2022-07-24T09:20:25;24.50;99.90
9305;DHT22;4690;52.422;13.486;2022-07-24T09:22:58;24.70;99.90
9305;DHT22;4690;52.422;13.486;2022-07-24T09:25:28;24.10;99.90
9305;DHT22;4690;52.422;13.486;2022-07-24T09:27:56;24.00;99.90
9305;DHT22;4690;52.422;13.486;2022-07-24T09:30:29;24.00;99.90
9305;DHT22;4690;52.422;13.486;2022-07-24T09:35:52;24.40;99.90
9305;DHT22;4690;52.422;13.486;2022-07-24T09:38:21;24.80;99.90
9305;DHT22;4690;52.422;13.486;2022-07-24T09:40:53;24.90;99.90
9305;DHT22;4690;52.422;13.486;2022-07-24T09:43:29;25.10;99.90
9305;DHT22;4690;52.422;13.486;2022-07-24T09:48:24;25.20;99.90
9305;DHT22;4690;52.422;13.486;2022-07-24T09:51:10;25.20;99.90
9305;DHT22;4690;52.422;13.486;2022-07-24T09:53:43;25.00;99.90
9305;DHT22;4690;52.422;13.486;2022-07-24T09:56:12;25.30;99.90
9305;DHT22;4690;52.422;13.486;2022-07-24T09:58:50;25.40;99.90
9305;DHT22;4690;52.422;13.486;2022-07-24T10:01:20;25.60;99.90
9305;DHT22;4690;52.422;13.486;2022-07-24T10:03:49;25.70;99.90
9305;DHT22;4690;52.422;13.486;2022-07-24T10:06:22;25.80;99.90
9305;DHT22;4690;52.422;13.486;2022-07-24T10:08:52;25.90;99.90
9305;DHT22;4690;52.422;13.486;2022-07-24T10:11:19;25.80;99.90
9305;DHT22;4690;52.422;13.486;2022-07-24T10:13:47;25.70;99.90
9305;DHT22;4690;52.422;13.486;2022-07-24T10:21:40;26.30;99.90
9305;DHT22;4690;52.422;13.486;2022-07-24T10:27:31;26.10;99.90
9305;DHT22;4690;52.422;13.486;2022-07-24T10:30:10;25.90;99.90
9305;DHT22;4690;52.422;13.486;2022-07-24T10:32:37;25.60;99.90
9305;DHT22;4690;52.422;13.486;2022-07-24T10:35:13;25.80;99.90
9305;DHT22;4690;52.422;13.486;2022-07-24T10:40:39;26.30;99.90
9305;DHT22;4690;52.422;13.486;2022-07-24T10:43:13;26.20;99.90
9305;DHT22;4690;52.422;13.486;2022-07-24T10:45:43;26.40;99.90
9305;DHT22;4690;52.422;13.486;2022-07-24T10:48:35;26.80;99.90
9305;DHT22;4690;52.422;13.486;2022-07-24T10:51:11;26.70;99.90
9305;DHT22;4690;52.422;13.486;2022-07-24T10:53:48;26.50;99.90
9305;DHT22;4690;52.422;13.486;2022-07-24T10:58:56;26.80;99.90
9305;DHT22;4690;52.422;13.486;2022-07-24T11:01:39;26.80;99.90
9305;DHT22;4690;52.422;13.486;2022-07-24T11:06:50;27.20;99.90
9305;DHT22;4690;52.422;13.486;2022-07-24T11:09:18;27.10;99.90
9305;DHT22;4690;52.422;13.486;2022-07-24T11:14:18;27.20;99.90
9305;DHT22;4690;52.422;13.486;2022-07-24T11:16:49;27.20;99.90
9305;DHT22;4690;52.422;13.486;2022-07-24T11:21:43;27.20;99.90
9305;DHT22;4690;52.422;13.486;2022-07-24T11:26:51;26.70;99.90
9305;DHT22;4690;52.422;13.486;2022-07-24T11:29:29;27.10;99.90
9305;DHT22;4690;52.422;13.486;2022-07-24T11:32:18;26.90;99.90
9305;DHT22;4690;52.422;13.486;2022-07-24T11:34:49;26.90;99.90
9305;DHT22;4690;52.422;13.486;2022-07-24T11:37:17;26.90;99.90
9305;DHT22;4690;52.422;13.486;2022-07-24T11:39:44;27.00;99.90
9305;DHT22;4690;52.422;13.486;2022-07-24T11:42:13;27.30;99.90
9305;DHT22;4690;52.422;13.486;2022-07-24T11:44:45;27.40;99.90
9305;DHT22;4690;52.422;13.486;2022-07-24T11:47:20;27.40;99.90
9305;DHT22;4690;52.422;13.486;2022-07-24T11:49:53;27.20;99.90
9305;DHT22;4690;52.422;13.486;2022-07-24T11:52:31;27.00;99.90
9305;DHT22;4690;52.422;13.486;2022-07-24T11:55:23;27.40;99.90
9305;DHT22;4690;52.422;13.486;2022-07-24T11:57:53;27.40;99.90
9305;DHT22;4690;52.422;13.486;2022-07-24T12:00:24;27.40;99.90
9305;DHT22;4690;52.422;13.486;2022-07-24T12:02:54;27.20;99.90
9305;DHT22;4690;52.422;13.486;2022-07-24T12:05:27;27.10;99.90
9305;DHT22;4690;52.422;13.486;2022-07-24T12:08:00;27.30;99.90
9305;DHT22;4690;52.422;13.486;2022-07-24T12:10:28;27.40;99.90
9305;DHT22;4690;52.422;13.486;2022-07-24T12:12:55;27.80;99.90
9305;DHT22;4690;52.422;13.486;2022-07-24T12:15:24;27.70;99.90
9305;DHT22;4690;52.422;13.486;2022-07-24T12:18:00;27.70;99.90
9305;DHT22;4690;52.422;13.486;2022-07-24T12:20:32;28.00;99.90
9305;DHT22;4690;52.422;13.486;2022-07-24T12:23:10;28.10;99.90
9305;DHT22;4690;52.422;13.486;2022-07-24T12:25:39;28.10;99.90
9305;DHT22;4690;52.422;13.486;2022-07-24T12:28:07;28.20;99.90
9305;DHT22;4690;52.422;13.486;2022-07-24T12:30:35;28.30;99.90
9305;DHT22;4690;52.422;13.486;2022-07-24T12:35:56;28.10;99.90
9305;DHT22;4690;52.422;13.486;2022-07-24T12:38:39;28.50;99.90
9305;DHT22;4690;52.422;13.486;2022-07-24T12:41:14;28.40;99.90
9305;DHT22;4690;52.422;13.486;2022-07-24T12:43:47;28.60;99.90
9305;DHT22;4690;52.422;13.486;2022-07-24T12:46:23;28.70;99.90
9305;DHT22;4690;52.422;13.486;2022-07-24T12:49:14;28.70;99.90
9305;DHT22;4690;52.422;13.486;2022-07-24T12:51:52;28.80;99.90
9305;DHT22;4690;52.422;13.486;2022-07-24T12:56:44;28.70;99.90
9305;DHT22;4690;52.422;13.486;2022-07-24T12:59:21;28.30;99.90
9305;DHT22;4690;52.422;13.486;2022-07-24T13:01:52;28.20;99.90
9305;DHT22;4690;52.422;13.486;2022-07-24T13:04:22;28.20;99.90
9305;DHT22;4690;52.422;13.486;2022-07-24T13:06:52;28.30;99.90
9305;DHT22;4690;52.422;13.486;2022-07-24T13:09:19;28.40;99.90
9305;DHT22;4690;52.422;13.486;2022-07-24T13:11:48;28.50;99.90
9305;DHT22;4690;52.422;13.486;2022-07-24T13:14:17;28.70;99.90
9305;DHT22;4690;52.422;13.486;2022-07-24T13:16:45;28.70;99.90
9305;DHT22;4690;52.422;13.486;2022-07-24T13:19:12;28.70;99.90
9305;DHT22;4690;52.422;13.486;2022-07-24T13:21:39;28.70;99.90
9305;DHT22;4690;52.422;13.486;2022-07-24T13:26:33;28.50;99.90
9305;DHT22;4690;52.422;13.486;2022-07-24T13:29:00;28.70;99.90
9305;DHT22;4690;52.422;13.486;2022-07-24T13:31:26;28.60;99.90
9305;DHT22;4690;52.422;13.486;2022-07-24T13:33:52;28.50;99.90
9305;DHT22;4690;52.422;13.486;2022-07-24T13:36:18;28.50;99.90
9305;DHT22;4690;52.422;13.486;2022-07-24T13:38:44;28.60;99.90
9305;DHT22;4690;52.422;13.486;2022-07-24T13:41:11;28.80;99.90
9305;DHT22;4690;52.422;13.486;2022-07-24T13:43:37;29.00;99.90
9305;DHT22;4690;52.422;13.486;2022-07-24T13:46:03;29.20;99.90
9305;DHT22;4690;52.422;13.486;2022-07-24T13:48:29;29.20;99.90
9305;DHT22;4690;52.422;13.486;2022-07-24T13:50:55;29.10;99.90
9305;DHT22;4690;52.422;13.486;2022-07-24T13:53:21;29.00;99.90
9305;DHT22;4690;52.422;13.486;2022-07-24T13:55:48;28.90;99.90
9305;DHT22;4690;52.422;13.486;2022-07-24T13:58:14;28.70;99.90
9305;DHT22;4690;52.422;13.486;2022-07-24T14:00:39;28.80;99.90
9305;DHT22;4690;52.422;13.486;2022-07-24T14:03:05;28.50;99.90
9305;DHT22;4690;52.422;13.486;2022-07-24T14:05:31;28.60;99.90
9305;DHT22;4690;52.422;13.486;2022-07-24T14:07:57;28.60;99.90
9305;DHT22;4690;52.422;13.486;2022-07-24T14:10:23;28.50;99.90
9305;DHT22;4690;52.422;13.486;2022-07-24T14:12:49;28.80;99.90
9305;DHT22;4690;52.422;13.486;2022-07-24T14:15:16;28.80;99.90
9305;DHT22;4690;52.422;13.486;2022-07-24T14:17:43;28.70;99.90
9305;DHT22;4690;52.422;13.486;2022-07-24T14:20:10;28.70;99.90
9305;DHT22;4690;52.422;13.486;2022-07-24T14:22:38;28.60;99.90
9305;DHT22;4690;52.422;13.486;2022-07-24T14:25:07;28.40;99.90
9305;DHT22;4690;52.422;13.486;2022-07-24T14:27:34;28.60;99.90
9305;DHT22;4690;52.422;13.486;2022-07-24T14:30:01;28.50;99.90
9305;DHT22;4690;52.422;13.486;2022-07-24T14:32:27;28.40;99.90
9305;DHT22;4690;52.422;13.486;2022-07-24T14:34:53;28.60;99.90
9305;DHT22;4690;52.422;13.486;2022-07-24T14:37:19;28.60;99.90
9305;DHT22;4690;52.422;13.486;2022-07-24T14:39:44;28.50;99.90
9305;DHT22;4690;52.422;13.486;2022-07-24T14:42:10;28.70;99.90
9305;DHT22;4690;52.422;13.486;2022-07-24T14:44:36;28.50;99.90
9305;DHT22;4690;52.422;13.486;2022-07-24T14:47:02;28.40;99.90
9305;DHT22;4690;52.422;13.486;2022-07-24T14:49:30;28.40;99.90
9305;DHT22;4690;52.422;13.486;2022-07-24T14:51:57;28.60;99.90
9305;DHT22;4690;52.422;13.486;2022-07-24T14:54:23;28.60;99.90
9305;DHT22;4690;52.422;13.486;2022-07-24T14:56:49;28.60;99.90
9305;DHT22;4690;52.422;13.486;2022-07-24T14:59:15;28.70;99.90
9305;DHT22;4690;52.422;13.486;2022-07-24T15:01:41;28.80;99.90
9305;DHT22;4690;52.422;13.486;2022-07-24T15:04:07;28.90;99.90
9305;DHT22;4690;52.422;13.486;2022-07-24T15:06:34;28.70;99.90
9305;DHT22;4690;52.422;13.486;2022-07-24T15:09:00;28.70;99.90
9305;DHT22;4690;52.422;13.486;2022-07-24T15:11:27;28.80;99.90
9305;DHT22;4690;52.422;13.486;2022-07-24T15:13:53;29.00;99.90
9305;DHT22;4690;52.422;13.486;2022-07-24T15:16:18;29.00;99.90
9305;DHT22;4690;52.422;13.486;2022-07-24T15:18:44;29.00;99.90
9305;DHT22;4690;52.422;13.486;2022-07-24T15:21:10;28.80;99.90
9305;DHT22;4690;52.422;13.486;2022-07-24T15:23:36;28.60;99.90
9305;DHT22;4690;52.422;13.486;2022-07-24T15:26:02;28.60;99.90
9305;DHT22;4690;52.422;13.486;2022-07-24T15:28:29;28.50;99.90
9305;DHT22;4690;52.422;13.486;2022-07-24T15:30:55;28.30;99.90
9305;DHT22;4690;52.422;13.486;2022-07-24T15:33:22;28.20;99.90
9305;DHT22;4690;52.422;13.486;2022-07-24T15:35:48;28.10;99.90
9305;DHT22;4690;52.422;13.486;2022-07-24T15:38:14;28.00;99.90
9305;DHT22;4690;52.422;13.486;2022-07-24T15:40:42;27.90;99.90
9305;DHT22;4690;52.422;13.486;2022-07-24T15:43:09;27.90;99.90
9305;DHT22;4690;52.422;13.486;2022-07-24T15:45:35;27.90;99.90
9305;DHT22;4690;52.422;13.486;2022-07-24T15:48:02;27.90;99.90
9305;DHT22;4690;52.422;13.486;2022-07-24T15:50:28;27.90;99.90
9305;DHT22;4690;52.422;13.486;2022-07-24T15:52:54;27.80;99.90
9305;DHT22;4690;52.422;13.486;2022-07-24T15:55:20;27.70;99.90
9305;DHT22;4690;52.422;13.486;2022-07-24T15:57:46;27.70;99.90
9305;DHT22;4690;52.422;13.486;2022-07-24T16:00:13;27.60;99.90
9305;DHT22;4690;52.422;13.486;2022-07-24T16:02:39;27.60;99.90
9305;DHT22;4690;52.422;13.486;2022-07-24T16:05:05;27.60;99.90
9305;DHT22;4690;52.422;13.486;2022-07-24T16:07:31;27.60;99.90
9305;DHT22;4690;52.422;13.486;2022-07-24T16:09:57;27.50;99.90
9305;DHT22;4690;52.422;13.486;2022-07-24T16:12:26;27.50;99.90
9305;DHT22;4690;52.422;13.486;2022-07-24T16:14:52;27.60;99.90
9305;DHT22;4690;52.422;13.486;2022-07-24T16:17:19;27.70;99.90
9305;DHT22;4690;52.422;13.486;2022-07-24T16:19:47;27.80;99.90
9305;DHT22;4690;52.422;13.486;2022-07-24T16:22:13;27.80;99.90
9305;DHT22;4690;52.422;13.486;2022-07-24T16:24:39;27.70;99.90
9305;DHT22;4690;52.422;13.486;2022-07-24T16:27:05;27.70;99.90
9305;DHT22;4690;52.422;13.486;2022-07-24T16:29:31;27.60;99.90